Time;durP1;ratioP1;P1;durP2;ratioP2;P2;SDS_P1;SDS_P2;PMS_P1;PMS_P2;Temp;Humidity;BMP_temperature;BMP_pressure;BME280_temperature;BME280_humidity;BME280_pressure;Samples;Min_cycle;Max_cycle;Signal;HPM_P1;HPM_P2
2022/12/18 00:01:26;;;;;;;19.20;7.32;;;-1.70;62.60;;;;;;2434616;52;21813;-71
2022/12/18 00:03:52;;;;;;;;;;;-1.70;62.50;;;;;;2475808;52;20974;-68
2022/12/18 00:06:19;;;;;;;15.82;6.72;;;-1.70;62.10;;;;;;2622320;52;20067;-70
2022/12/18 00:08:45;;;;;;;22.75;8.77;;;-1.70;62.30;;;;;;2556481;52;20938;-69
2022/12/18 00:11:17;;;;;;;20.15;8.85;;;-1.70;62.40;;;;;;2369633;53;20906;-73
2022/12/18 00:13:43;;;;;;;21.58;8.23;;;-1.80;62.40;;;;;;2559743;52;20998;-70
2022/12/18 00:16:12;;;;;;;25.15;8.43;;;-1.80;62.40;;;;;;2369992;53;20930;-69
2022/12/18 00:18:38;;;;;;;25.83;9.77;;;-1.80;62.40;;;;;;2408369;52;20942;-69
2022/12/18 00:21:07;;;;;;;24.12;10.02;;;-1.80;62.30;;;;;;2522326;52;20935;-71
2022/12/18 00:23:34;;;;;;;29.73;10.02;;;-1.80;62.40;;;;;;2420037;52;20950;-71
2022/12/18 00:26:01;;;;;;;25.95;9.95;;;-1.80;62.40;;;;;;2478642;52;21506;-69
2022/12/18 00:28:29;;;;;;;26.12;10.25;;;-1.80;62.50;;;;;;2370049;53;20914;-69
2022/12/18 00:31:15;;;;;;;21.12;7.80;;;-1.80;62.50;;;;;;2370524;53;20929;-70
2022/12/18 00:33:42;;;;;;;18.40;8.35;;;-1.80;62.40;;;;;;2370737;53;20974;-70
2022/12/18 00:36:12;;;;;;;21.10;8.88;;;-1.80;62.40;;;;;;2369816;53;20910;-69
2022/12/18 00:38:39;;;;;;;31.85;11.50;;;-1.80;62.30;;;;;;2370517;53;21626;-72
2022/12/18 00:41:09;;;;;;;28.75;12.65;;;-1.80;62.40;;;;;;2370444;53;20994;-70
2022/12/18 00:43:36;;;;;;;25.77;12.10;;;-1.80;62.30;;;;;;2370278;53;20966;-70
2022/12/18 00:46:04;;;;;;;22.40;8.55;;;-1.80;62.30;;;;;;2370463;53;20942;-73
2022/12/18 00:48:31;;;;;;;20.88;8.77;;;-1.80;62.20;;;;;;2369800;53;21380;-71
2022/12/18 00:50:57;;;;;;;28.75;13.88;;;-1.80;62.10;;;;;;2370099;53;21689;-70
2022/12/18 00:53:23;;;;;;;19.17;8.07;;;-1.80;62.00;;;;;;2369919;53;20954;-71
2022/12/18 00:55:51;;;;;;;20.60;9.85;;;-1.90;61.80;;;;;;2623302;52;20914;-69
2022/12/18 00:58:18;;;;;;;22.60;9.77;;;-1.90;61.70;;;;;;2369198;53;20942;-70
2022/12/18 01:00:44;;;;;;;24.90;12.18;;;-1.90;61.70;;;;;;2369502;53;20974;-71
2022/12/18 01:03:13;;;;;;;22.87;9.80;;;-1.90;61.80;;;;;;2369532;53;21455;-71
2022/12/18 01:05:42;;;;;;;22.13;9.38;;;-1.90;61.80;;;;;;2370081;53;20926;-70
2022/12/18 01:08:09;;;;;;;20.48;8.48;;;-1.90;61.80;;;;;;2400035;52;20926;-69
2022/12/18 01:10:35;;;;;;;21.33;8.85;;;-1.90;61.80;;;;;;2368339;53;20918;-70
2022/12/18 01:13:02;;;;;;;29.75;10.90;;;-2.00;61.70;;;;;;2369230;53;20986;-72
2022/12/18 01:15:28;;;;;;;20.23;9.10;;;-2.00;61.70;;;;;;2369997;53;21917;-68
2022/12/18 01:17:55;;;;;;;17.45;7.55;;;-2.00;61.70;;;;;;2370066;53;20926;-70
2022/12/18 01:20:21;;;;;;;15.15;7.00;;;-2.00;61.60;;;;;;2439706;52;21278;-71
2022/12/18 01:22:48;;;;;;;16.83;6.95;;;-2.00;61.60;;;;;;2369927;53;21475;-70
2022/12/18 01:25:14;;;;;;;21.85;8.75;;;-2.10;61.50;;;;;;2369656;53;21022;-70
2022/12/18 01:27:40;;;;;;;22.75;9.63;;;-2.00;61.60;;;;;;2370288;53;21404;-71
2022/12/18 01:30:08;;;;;;;20.37;8.95;;;-2.10;61.50;;;;;;2469452;52;20931;-69
2022/12/18 01:32:38;;;;;;;20.70;7.82;;;-2.10;61.60;;;;;;2370185;53;21013;-70
2022/12/18 01:35:06;;;;;;;23.65;8.52;;;-2.10;61.60;;;;;;2357187;53;20942;-68
2022/12/18 01:37:33;;;;;;;21.12;8.73;;;-2.10;61.70;;;;;;2363236;53;20922;-72
2022/12/18 01:40:30;;;;;;;25.98;10.43;;;-2.10;61.70;;;;;;2393272;52;21453;-70
2022/12/18 01:42:59;;;;;;;22.65;9.70;;;-2.10;61.70;;;;;;2369922;53;20903;-68
2022/12/18 01:45:30;;;;;;;17.02;7.78;;;-2.10;61.80;;;;;;2349647;53;20895;-70
2022/12/18 01:48:04;;;;;;;21.33;8.60;;;-2.10;61.80;;;;;;2370917;52;20981;-68
2022/12/18 01:50:34;;;;;;;19.45;6.93;;;-2.10;62.50;;;;;;2370173;53;20888;-69
2022/12/18 01:53:21;;;;;;;20.27;8.10;;;-2.10;61.90;;;;;;2370458;53;20937;-68
2022/12/18 01:55:55;;;;;;;27.17;12.73;;;-2.10;61.90;;;;;;2371852;53;21073;-69
2022/12/18 01:58:24;;;;;;;180.57;82.50;;;-2.10;62.00;;;;;;2344927;53;21060;-68
2022/12/18 02:00:51;;;;;;;44.30;21.58;;;-2.10;62.10;;;;;;2361289;53;21865;-69
2022/12/18 02:03:21;;;;;;;29.23;12.98;;;-2.10;62.10;;;;;;2374648;52;21101;-70
2022/12/18 02:06:17;;;;;;;26.75;11.38;;;-2.10;62.10;;;;;;2370061;53;20922;-69
2022/12/18 02:11:39;;;;;;;32.90;14.35;;;-2.10;61.90;;;;;;2370391;53;21055;-68
2022/12/18 02:14:17;;;;;;;22.60;9.32;;;-2.10;62.40;;;;;;2370873;53;20958;-69
2022/12/18 02:16:58;;;;;;;74.05;31.87;;;-2.10;61.90;;;;;;2370038;53;20887;-72
2022/12/18 02:20:28;;;;;;;37.58;16.17;;;-2.10;62.10;;;;;;2369892;53;21454;-69
2022/12/18 02:23:40;;;;;;;25.58;11.05;;;-2.10;62.20;;;;;;2370111;53;21049;-71
2022/12/18 02:27:37;;;;;;;23.45;10.35;;;-2.10;62.20;;;;;;2393801;53;21652;-71
2022/12/18 02:30:04;;;;;;;25.33;8.98;;;-2.10;62.20;;;;;;2342448;53;20973;-72
2022/12/18 02:32:47;;;;;;;23.92;9.27;;;-2.10;62.40;;;;;;2342337;53;24774;-69
2022/12/18 02:35:17;;;;;;;18.73;7.45;;;-2.10;62.40;;;;;;2342415;53;20920;-72
2022/12/18 02:37:44;;;;;;;22.02;9.23;;;-2.10;62.50;;;;;;2342707;53;20929;-71
2022/12/18 02:40:11;;;;;;;22.95;9.15;;;-2.10;62.50;;;;;;2342367;53;21075;-69
2022/12/18 02:42:37;;;;;;;21.73;9.35;;;-2.10;62.40;;;;;;2342526;53;21675;-70
2022/12/18 02:45:04;;;;;;;21.20;8.35;;;-2.00;62.50;;;;;;2373554;53;20908;-69
2022/12/18 02:47:36;;;;;;;30.52;10.05;;;-2.00;62.50;;;;;;2342398;53;20952;-70
2022/12/18 02:50:37;;;;;;;26.67;10.00;;;-2.00;62.40;;;;;;2342515;53;21386;-71
2022/12/18 02:53:52;;;;;;;28.30;10.23;;;-2.00;62.30;;;;;;2342487;53;20913;-71
2022/12/18 02:56:21;;;;;;;27.55;10.10;;;-2.00;62.10;;;;;;2342626;53;20992;-70
2022/12/18 02:59:00;;;;;;;31.00;10.25;;;-2.00;62.30;;;;;;2342148;53;20912;-68
2022/12/18 03:01:43;;;;;;;24.77;9.07;;;-2.00;62.30;;;;;;2354613;53;20953;-71
2022/12/18 03:04:21;;;;;;;31.05;9.98;;;-2.00;62.30;;;;;;2589272;52;20940;-72
2022/12/18 03:06:52;;;;;;;26.27;8.30;;;-2.00;62.40;;;;;;2585718;52;20969;-72
2022/12/18 03:09:35;;;;;;;26.33;10.07;;;-2.00;62.40;;;;;;2485319;52;20976;-71
2022/12/18 03:15:38;;;;;;;28.20;10.35;;;-2.00;62.30;;;;;;2423905;52;21806;-70
2022/12/18 03:18:08;;;;;;;27.15;10.45;;;-2.00;62.30;;;;;;2344461;53;20984;-71
2022/12/18 03:20:35;;;;;;;30.20;9.80;;;-2.00;62.30;;;;;;2342265;53;21004;-71
2022/12/18 03:23:09;;;;;;;30.25;10.40;;;-2.00;62.30;;;;;;2342415;53;21020;-73
2022/12/18 03:25:35;;;;;;;26.50;10.10;;;-2.00;62.20;;;;;;2342427;53;20924;-70
2022/12/18 03:28:02;;;;;;;28.02;10.07;;;-2.00;62.10;;;;;;2342218;53;20949;-69
2022/12/18 03:30:28;;;;;;;30.85;10.73;;;-2.10;62.00;;;;;;2342179;53;20917;-70
2022/12/18 03:33:05;;;;;;;32.10;10.05;;;-2.10;61.90;;;;;;2342485;53;21670;-69
2022/12/18 03:35:34;;;;;;;26.10;10.23;;;-2.10;61.80;;;;;;2400238;52;20944;-70
2022/12/18 03:38:01;;;;;;;27.17;9.63;;;-2.10;61.80;;;;;;2348423;53;20977;-70
2022/12/18 03:40:32;;;;;;;28.65;9.63;;;-2.10;61.80;;;;;;2561003;53;20924;-69
2022/12/18 03:44:42;;;;;;;23.52;9.77;;;-2.10;61.70;;;;;;2342091;53;20984;-69
2022/12/18 03:49:47;;;;;;;24.67;9.63;;;-2.10;61.70;;;;;;2552803;52;21035;-73
2022/12/18 03:52:17;;;;;;;;;;;-2.10;62.20;;;;;;2354808;53;21009;-71
2022/12/18 03:54:46;;;;;;;18.40;6.65;;;-2.20;61.30;;;;;;2587214;52;20117;-68
2022/12/18 03:57:20;;;;;;;21.75;8.65;;;-2.20;61.50;;;;;;2607798;52;20941;-70
2022/12/18 03:59:50;;;;;;;27.30;9.35;;;-2.20;61.50;;;;;;2482079;52;21048;-70
2022/12/18 04:02:16;;;;;;;32.20;10.07;;;-2.30;61.40;;;;;;2342372;53;20942;-71
2022/12/18 04:04:43;;;;;;;25.45;9.20;;;-2.30;61.40;;;;;;2450172;52;21000;-70
2022/12/18 04:07:10;;;;;;;24.33;8.93;;;-2.30;61.40;;;;;;2342495;53;21116;-72
2022/12/18 04:09:36;;;;;;;23.12;8.90;;;-2.30;61.40;;;;;;2605767;52;20913;-70
2022/12/18 04:12:04;;;;;;;24.60;9.15;;;-2.30;61.40;;;;;;2504089;53;20970;-71
2022/12/18 04:14:35;;;;;;;27.00;10.27;;;-2.40;62.00;;;;;;2384295;53;20943;-69
2022/12/18 04:17:02;;;;;;;25.00;10.60;;;-2.30;61.40;;;;;;2502176;52;20957;-69
2022/12/18 04:19:35;;;;;;;26.85;10.18;;;-2.40;61.30;;;;;;2465115;52;21847;-68
2022/12/18 04:22:04;;;;;;;24.52;9.60;;;-2.40;61.30;;;;;;2370835;53;20942;-69
2022/12/18 04:24:31;;;;;;;26.15;9.52;;;-2.40;61.30;;;;;;2622360;52;20934;-70
2022/12/18 04:26:58;;;;;;;29.83;11.15;;;-2.40;61.30;;;;;;2370473;53;20915;-71
2022/12/18 04:29:24;;;;;;;26.67;9.88;;;-2.50;61.20;;;;;;2370170;53;21021;-73
2022/12/18 04:31:51;;;;;;;30.80;11.70;;;-2.50;61.00;;;;;;2430820;52;20950;-72
2022/12/18 04:34:18;;;;;;;34.35;12.18;;;-2.50;60.90;;;;;;2572955;52;20958;-69
2022/12/18 04:36:44;;;;;;;48.47;20.37;;;-2.50;60.80;;;;;;2370352;53;20887;-71
2022/12/18 04:39:12;;;;;;;41.13;17.42;;;-2.60;60.60;;;;;;2595868;52;20998;-71
2022/12/18 04:41:38;;;;;;;40.92;15.57;;;-2.60;60.60;;;;;;2369256;53;20901;-72
2022/12/18 04:44:05;;;;;;;33.55;12.32;;;-2.60;60.70;;;;;;2370564;53;21514;-70
2022/12/18 04:46:34;;;;;;;25.50;10.95;;;-2.70;60.60;;;;;;2369684;53;21870;-70
2022/12/18 04:49:04;;;;;;;29.70;11.20;;;-2.70;60.70;;;;;;2408909;52;20906;-71
2022/12/18 04:51:36;;;;;;;28.10;9.73;;;-2.70;60.80;;;;;;2369850;53;20974;-72
2022/12/18 04:54:03;;;;;;;27.65;10.65;;;-2.80;61.40;;;;;;2528210;52;21387;-70
2022/12/18 04:56:31;;;;;;;26.60;10.27;;;-2.80;60.80;;;;;;2370085;53;20909;-68
2022/12/18 04:58:57;;;;;;;25.30;11.27;;;-2.80;60.90;;;;;;2599537;52;20966;-69
2022/12/18 05:01:24;;;;;;;22.67;9.45;;;-2.80;61.00;;;;;;2365739;53;20910;-68
2022/12/18 05:03:51;;;;;;;23.55;8.35;;;-2.80;61.00;;;;;;2402505;52;20905;-70
2022/12/18 05:06:21;;;;;;;21.98;9.10;;;-2.80;61.00;;;;;;2369987;53;20926;-70
2022/12/18 05:08:51;;;;;;;20.58;7.97;;;-2.90;60.90;;;;;;2622713;52;20926;-71
2022/12/18 05:11:18;;;;;;;17.10;6.87;;;-2.80;60.90;;;;;;2369750;53;20910;-72
2022/12/18 05:13:44;;;;;;;19.83;8.45;;;-2.80;60.90;;;;;;2622523;52;21451;-72
2022/12/18 05:16:11;;;;;;;22.90;9.40;;;-2.90;60.70;;;;;;2370267;53;20906;-71
2022/12/18 05:18:37;;;;;;;24.37;9.80;;;-2.90;60.60;;;;;;2622829;52;20930;-69
2022/12/18 05:21:05;;;;;;;22.92;8.93;;;-2.90;60.60;;;;;;2358691;53;20974;-71
2022/12/18 05:23:31;;;;;;;25.25;11.70;;;-3.00;60.50;;;;;;2612280;52;20922;-68
2022/12/18 05:26:00;;;;;;;23.23;9.45;;;-3.00;60.60;;;;;;2622919;52;21002;-69
2022/12/18 05:28:28;;;;;;;20.40;8.73;;;-3.00;60.70;;;;;;2482871;52;20955;-67
2022/12/18 05:30:57;;;;;;;17.87;7.25;;;-3.00;60.70;;;;;;2369872;53;21754;-69
2022/12/18 05:33:26;;;;;;;19.70;8.07;;;-3.00;60.70;;;;;;2553372;52;20931;-72
2022/12/18 05:35:56;;;;;;;23.40;9.35;;;-3.10;60.50;;;;;;2378531;52;20966;-70
2022/12/18 05:38:24;;;;;;;27.52;10.38;;;-3.10;60.50;;;;;;2370299;52;20914;-69
2022/12/18 05:40:51;;;;;;;24.55;10.68;;;-3.10;60.50;;;;;;2376169;52;20918;-69
2022/12/18 05:43:19;;;;;;;26.27;10.02;;;-3.10;60.50;;;;;;2622731;52;20934;-71
2022/12/18 05:45:47;;;;;;;26.52;10.98;;;-3.10;60.50;;;;;;2422429;52;20958;-69
2022/12/18 05:48:32;;;;;;;22.45;9.48;;;-3.20;60.40;;;;;;2347300;53;20942;-70
2022/12/18 05:51:04;;;;;;;27.80;10.65;;;-3.20;60.40;;;;;;2370181;53;20974;-69
2022/12/18 05:53:32;;;;;;;22.33;9.50;;;-3.20;61.20;;;;;;2370269;53;20969;-69
2022/12/18 05:56:02;;;;;;;26.00;9.85;;;-3.20;60.50;;;;;;2370257;53;20922;-71
2022/12/18 05:58:28;;;;;;;28.23;9.63;;;-3.20;60.60;;;;;;2445781;52;21766;-72
2022/12/18 06:00:56;;;;;;;17.08;6.07;;;-3.20;60.70;;;;;;2503217;52;20914;-69
2022/12/18 06:03:22;;;;;;;16.37;7.65;;;-3.20;60.60;;;;;;2362494;53;20966;-71
2022/12/18 06:05:50;;;;;;;16.12;6.70;;;-3.30;60.30;;;;;;2358929;53;20982;-69
2022/12/18 06:08:16;;;;;;;16.30;5.87;;;-3.30;60.10;;;;;;2370351;53;20914;-71
2022/12/18 06:10:48;;;;;;;16.33;6.90;;;-3.30;60.10;;;;;;2370138;53;21021;-70
2022/12/18 06:13:15;;;;;;;13.40;5.90;;;-3.30;60.00;;;;;;2346660;53;21372;-71
2022/12/18 06:15:41;;;;;;;18.62;7.07;;;-3.40;60.00;;;;;;2342822;53;21457;-71
2022/12/18 06:18:09;;;;;;;13.05;6.10;;;-3.40;60.00;;;;;;2503480;52;20956;-68
2022/12/18 06:20:36;;;;;;;11.93;5.18;;;-3.40;60.10;;;;;;2341209;53;21036;-72
2022/12/18 06:23:03;;;;;;;14.82;5.87;;;-3.40;60.10;;;;;;2453129;52;21040;-71
2022/12/18 06:25:30;;;;;;;13.23;5.60;;;-3.50;60.10;;;;;;2341789;53;20952;-69
2022/12/18 06:27:59;;;;;;;18.87;7.55;;;-3.50;60.00;;;;;;2348119;53;20902;-69
2022/12/18 06:30:27;;;;;;;15.88;6.00;;;-3.50;60.00;;;;;;2369334;53;20914;-69
2022/12/18 06:32:54;;;;;;;12.68;6.10;;;-3.50;60.00;;;;;;2369484;53;20946;-72
2022/12/18 06:35:22;;;;;;;20.77;8.25;;;-3.50;60.00;;;;;;2368832;53;20942;-70
2022/12/18 06:37:48;;;;;;;22.30;8.93;;;-3.50;60.10;;;;;;2357540;53;20978;-67
2022/12/18 06:40:15;;;;;;;20.58;7.97;;;-3.50;60.20;;;;;;2462570;52;20950;-68
2022/12/18 06:42:41;;;;;;;24.98;8.73;;;-3.60;60.20;;;;;;2368449;53;20950;-69
2022/12/18 06:45:11;;;;;;;22.08;8.52;;;-3.60;60.20;;;;;;2369620;53;21864;-72
2022/12/18 06:47:39;;;;;;;27.75;10.63;;;-3.60;60.30;;;;;;2369256;53;20848;-67
2022/12/18 06:50:07;;;;;;;34.95;12.48;;;-3.60;60.40;;;;;;2369388;53;20911;-70
2022/12/18 06:52:33;;;;;;;39.13;14.15;;;-3.50;60.60;;;;;;2621655;52;20918;-68
2022/12/18 06:55:00;;;;;;;30.02;11.88;;;-3.50;60.60;;;;;;2370250;53;20942;-72
2022/12/18 06:57:26;;;;;;;28.48;11.02;;;-3.50;60.70;;;;;;2369444;53;21054;-70
2022/12/18 06:59:52;;;;;;;21.50;9.13;;;-3.60;60.60;;;;;;2459719;52;20974;-71
2022/12/18 07:02:20;;;;;;;32.22;12.20;;;-3.50;60.80;;;;;;2465030;52;20939;-68
2022/12/18 07:04:47;;;;;;;26.12;10.73;;;-3.50;60.70;;;;;;2369496;53;20938;-69
2022/12/18 07:07:13;;;;;;;23.52;9.75;;;-3.50;60.70;;;;;;2476539;52;20994;-67
2022/12/18 07:09:39;;;;;;;24.25;10.50;;;-3.50;60.80;;;;;;2369817;53;20961;-69
2022/12/18 07:12:06;;;;;;;23.15;8.65;;;-3.50;60.80;;;;;;2349210;53;20927;-69
2022/12/18 07:14:33;;;;;;;20.90;8.60;;;-3.50;60.80;;;;;;2369742;53;21348;-71
2022/12/18 07:16:59;;;;;;;26.60;11.32;;;-3.50;60.70;;;;;;2369983;53;21776;-70
2022/12/18 07:19:26;;;;;;;22.83;9.52;;;-3.50;60.70;;;;;;2369358;53;20914;-67
2022/12/18 07:21:52;;;;;;;21.50;9.23;;;-3.50;60.70;;;;;;2372839;53;21026;-70
2022/12/18 07:24:18;;;;;;;21.73;8.98;;;-3.50;60.70;;;;;;2346764;53;20930;-72
2022/12/18 07:26:46;;;;;;;16.77;7.53;;;-3.50;60.70;;;;;;2347351;54;20970;-69
2022/12/18 07:29:13;;;;;;;14.57;6.80;;;-3.50;60.60;;;;;;2369695;53;21053;-69
2022/12/18 07:31:39;;;;;;;22.08;9.90;;;-3.50;60.40;;;;;;2369650;53;20978;-67
2022/12/18 07:34:11;;;;;;;21.40;10.52;;;-3.50;60.30;;;;;;2327231;53;21528;-69
2022/12/18 07:36:38;;;;;;;19.27;8.55;;;-3.50;60.10;;;;;;2341469;53;20943;-68
2022/12/18 07:39:10;;;;;;;16.10;7.28;;;-3.50;60.00;;;;;;2341899;53;21851;-69
2022/12/18 07:41:36;;;;;;;20.60;9.77;;;-3.50;60.00;;;;;;2423841;52;20940;-69
2022/12/18 07:44:06;;;;;;;23.73;10.68;;;-3.60;59.90;;;;;;2373948;53;21789;-67
2022/12/18 07:46:33;;;;;;;19.40;8.95;;;-3.60;59.90;;;;;;2341036;53;21043;-68
2022/12/18 07:48:59;;;;;;;24.70;11.82;;;-3.60;60.00;;;;;;2555548;52;21928;-67
2022/12/18 07:51:26;;;;;;;19.95;8.90;;;-3.60;60.00;;;;;;2386888;52;21375;-67
2022/12/18 07:53:52;;;;;;;23.42;11.43;;;-3.60;60.00;;;;;;2368413;53;20942;-67
2022/12/18 07:56:18;;;;;;;25.12;12.50;;;-3.60;60.00;;;;;;2368978;53;20998;-72
2022/12/18 07:58:53;;;;;;;20.45;9.63;;;-3.70;59.90;;;;;;2369046;53;20930;-68
2022/12/18 08:01:20;;;;;;;18.52;8.60;;;-3.70;59.90;;;;;;2414312;52;21443;-71
2022/12/18 08:03:46;;;;;;;26.02;12.20;;;-3.70;59.80;;;;;;2340037;54;20961;-69
2022/12/18 08:06:13;;;;;;;27.05;11.73;;;-3.70;59.80;;;;;;2340454;54;20944;-66
2022/12/18 08:08:41;;;;;;;29.85;11.70;;;-3.70;59.80;;;;;;2567465;52;20957;-71
2022/12/18 08:11:07;;;;;;;27.95;10.82;;;-3.70;59.90;;;;;;2340989;53;21471;-70
2022/12/18 08:13:34;;;;;;;34.35;13.13;;;-3.70;60.00;;;;;;2341334;53;20927;-70
2022/12/18 08:16:05;;;;;;;30.85;11.10;;;-3.80;60.00;;;;;;2530429;52;21535;-69
2022/12/18 08:18:37;;;;;;;26.40;8.90;;;-3.80;60.10;;;;;;2392040;52;21006;-72
2022/12/18 08:21:20;;;;;;;;;;;-3.80;60.10;;;;;;2352891;53;20987;-71
2022/12/18 08:23:47;;;;;;;20.12;9.68;;;-3.70;60.00;;;;;;2352533;53;20655;-70
2022/12/18 08:26:17;;;;;;;19.00;8.60;;;-3.80;60.00;;;;;;2502690;52;20981;-68
2022/12/18 08:28:43;;;;;;;19.85;8.15;;;-3.80;60.10;;;;;;2341711;53;20996;-69
2022/12/18 08:31:10;;;;;;;22.65;9.45;;;-3.80;60.20;;;;;;2344996;53;20941;-69
2022/12/18 08:33:37;;;;;;;19.95;7.03;;;-3.70;60.30;;;;;;2369551;53;20989;-71
2022/12/18 08:36:04;;;;;;;19.67;8.20;;;-3.80;60.10;;;;;;2622405;52;21031;-72
2022/12/18 08:38:32;;;;;;;20.30;8.52;;;-3.70;60.10;;;;;;2452861;52;21497;-69
2022/12/18 08:41:10;;;;;;;17.65;6.78;;;-3.80;60.00;;;;;;2563226;52;21473;-71
2022/12/18 08:46:21;;;;;;;16.60;6.68;;;-3.80;59.90;;;;;;2370397;53;20969;-71
2022/12/18 08:48:47;;;;;;;17.98;7.55;;;-3.80;59.80;;;;;;2369303;53;20966;-71
2022/12/18 08:51:15;;;;;;;18.90;7.65;;;-3.80;59.80;;;;;;2482118;52;21406;-68
2022/12/18 08:53:42;;;;;;;18.20;7.25;;;-3.80;59.90;;;;;;2369060;53;20993;-68
2022/12/18 08:56:09;;;;;;;21.52;8.05;;;-3.80;59.90;;;;;;2368899;53;20993;-68
2022/12/18 08:58:35;;;;;;;15.80;6.95;;;-3.90;59.80;;;;;;2365625;53;21457;-72
2022/12/18 09:01:03;;;;;;;27.02;10.25;;;-3.90;59.90;;;;;;2467749;52;21680;-71
2022/12/18 09:03:30;;;;;;;25.02;9.05;;;-3.80;60.00;;;;;;2369043;53;21057;-69
2022/12/18 09:05:56;;;;;;;19.40;8.32;;;-3.80;60.10;;;;;;2368504;53;20937;-71
2022/12/18 09:08:23;;;;;;;20.58;8.75;;;-3.80;60.30;;;;;;2368186;53;20910;-69
2022/12/18 09:10:49;;;;;;;23.33;10.10;;;-3.80;60.40;;;;;;2364936;53;20961;-69
2022/12/18 09:13:16;;;;;;;27.10;10.90;;;-3.70;60.50;;;;;;2369623;53;20986;-68
2022/12/18 09:15:43;;;;;;;25.77;10.68;;;-3.70;60.50;;;;;;2369226;53;21684;-69
2022/12/18 09:18:09;;;;;;;25.12;9.35;;;-3.70;60.60;;;;;;2369693;53;21278;-69
2022/12/18 09:20:36;;;;;;;23.38;9.07;;;-3.60;60.80;;;;;;2369534;53;21275;-68
2022/12/18 09:23:03;;;;;;;27.77;11.07;;;-3.60;60.80;;;;;;2448475;52;20934;-69
2022/12/18 09:25:35;;;;;;;25.37;9.98;;;-3.60;60.80;;;;;;2369149;53;20903;-68
2022/12/18 09:28:02;;;;;;;18.20;8.30;;;-3.50;60.80;;;;;;2364113;53;20968;-71
2022/12/18 09:30:29;;;;;;;21.02;7.95;;;-3.50;60.70;;;;;;2353040;53;20894;-67
2022/12/18 09:32:55;;;;;;;16.83;6.47;;;-3.50;60.60;;;;;;2368882;53;21013;-69
2022/12/18 09:35:22;;;;;;;18.45;7.37;;;-3.50;60.50;;;;;;2368968;53;20990;-70
2022/12/18 09:37:48;;;;;;;21.12;8.38;;;-3.50;60.40;;;;;;2472040;52;20938;-70
2022/12/18 09:40:19;;;;;;;13.88;6.03;;;-3.50;60.50;;;;;;2435190;52;20969;-67
2022/12/18 09:42:48;;;;;;;16.62;6.93;;;-3.40;60.70;;;;;;2368682;53;21467;-70
2022/12/18 09:45:15;;;;;;;19.95;7.68;;;-3.40;60.70;;;;;;2368790;53;21068;-69
2022/12/18 09:47:41;;;;;;;18.25;7.80;;;-3.50;60.80;;;;;;2389153;52;21551;-71
2022/12/18 09:52:38;;;;;;;27.08;11.30;;;-3.40;60.90;;;;;;2422453;52;20930;-70
2022/12/18 09:56:57;;;;;;;15.63;6.32;;;-3.30;60.90;;;;;;2369392;53;22166;-72
2022/12/18 09:59:31;;;;;;;16.60;6.82;;;-3.20;60.80;;;;;;2368946;53;20976;-71
2022/12/18 10:01:58;;;;;;;22.75;9.63;;;-3.20;61.00;;;;;;2621350;52;20994;-70
2022/12/18 10:04:24;;;;;;;22.77;8.43;;;-3.20;61.20;;;;;;2368643;53;20966;-67
2022/12/18 10:07:16;;;;;;;16.05;6.82;;;-3.10;61.50;;;;;;2372495;52;20981;-71
2022/12/18 10:10:06;;;;;;;24.00;10.05;;;-3.10;61.70;;;;;;2368830;53;21529;-72
2022/12/18 10:13:31;;;;;;;19.35;8.60;;;-3.00;61.80;;;;;;2367662;53;20990;-70
2022/12/18 10:18:57;;;;;;;28.17;10.52;;;-3.00;61.80;;;;;;2621261;52;20943;-72
2022/12/18 10:21:44;;;;;;;19.52;8.35;;;-2.90;61.30;;;;;;2368872;53;21987;-70
2022/12/18 10:24:35;;;;;;;22.92;9.10;;;-2.80;61.20;;;;;;2369221;53;21010;-71
2022/12/18 10:27:11;;;;;;;25.23;9.98;;;-2.80;61.10;;;;;;2368534;53;21021;-72
2022/12/18 10:29:37;;;;;;;23.52;9.07;;;-2.80;61.00;;;;;;2421469;52;21428;-69
2022/12/18 10:32:03;;;;;;;25.88;10.57;;;-2.80;61.00;;;;;;2368629;53;21388;-71
2022/12/18 10:34:30;;;;;;;21.98;9.35;;;-2.80;61.00;;;;;;2392905;52;20918;-72
2022/12/18 10:36:56;;;;;;;25.83;10.70;;;-2.80;61.00;;;;;;2620958;52;21384;-70
2022/12/18 10:39:24;;;;;;;26.45;10.80;;;-2.80;61.00;;;;;;2476227;52;20986;-68
2022/12/18 10:41:51;;;;;;;22.48;9.32;;;-2.80;61.00;;;;;;2414625;52;21360;-71
2022/12/18 10:44:21;;;;;;;26.85;10.10;;;-2.80;61.00;;;;;;2367994;53;21088;-69
2022/12/18 10:46:58;;;;;;;31.10;11.45;;;-2.70;61.30;;;;;;2368644;53;20934;-71
2022/12/18 10:49:29;;;;;;;30.33;11.68;;;-2.70;61.40;;;;;;2439409;53;20945;-71
2022/12/18 10:52:23;;;;;;;27.83;10.27;;;-2.70;61.30;;;;;;2341555;53;21004;-72
2022/12/18 10:54:54;;;;;;;27.75;10.80;;;-2.60;61.30;;;;;;2351230;52;21437;-70
2022/12/18 10:57:37;;;;;;;26.65;9.45;;;-2.60;61.30;;;;;;2341029;53;21394;-69
2022/12/18 11:01:27;;;;;;;19.62;8.05;;;-2.60;61.20;;;;;;2439802;52;21311;-69
2022/12/18 11:04:07;;;;;;;22.87;8.75;;;-2.50;61.20;;;;;;2340557;53;20929;-70
2022/12/18 11:06:33;;;;;;;22.25;7.95;;;-2.50;61.30;;;;;;2423931;52;20971;-71
2022/12/18 11:09:02;;;;;;;21.73;9.05;;;-2.50;61.30;;;;;;2341541;53;20921;-72
2022/12/18 11:11:29;;;;;;;19.33;8.45;;;-2.50;61.40;;;;;;2341085;53;21000;-73
2022/12/18 11:14:46;;;;;;;24.27;9.07;;;-2.50;61.60;;;;;;2341455;53;20969;-71
2022/12/18 11:17:31;;;;;;;22.27;9.07;;;-2.40;61.90;;;;;;2341602;53;21004;-71
2022/12/18 11:20:40;;;;;;;20.77;8.93;;;-2.40;62.70;;;;;;2341227;53;20940;-71
2022/12/18 11:23:11;;;;;;;26.30;9.85;;;-2.30;62.10;;;;;;2341085;53;21299;-72
2022/12/18 11:25:38;;;;;;;26.25;10.98;;;-2.30;62.20;;;;;;2518767;52;21150;-72
2022/12/18 11:28:09;;;;;;;29.52;11.80;;;-2.20;62.30;;;;;;2445293;52;20929;-71
2022/12/18 11:30:36;;;;;;;29.10;11.40;;;-2.20;62.40;;;;;;2445308;52;20904;-72
2022/12/18 11:33:20;;;;;;;25.42;11.25;;;-2.10;62.60;;;;;;2341321;53;20972;-73
2022/12/18 11:36:19;;;;;;;28.20;11.40;;;-2.00;62.60;;;;;;2505533;52;21008;-69
2022/12/18 11:38:46;;;;;;;20.30;9.35;;;-2.00;62.40;;;;;;2340806;53;20944;-70
2022/12/18 11:44:27;;;;;;;36.08;12.93;;;-1.90;62.60;;;;;;2341225;53;21496;-71
2022/12/18 11:47:01;;;;;;;29.40;11.68;;;-1.80;62.70;;;;;;2311812;53;1761550;-70
2022/12/18 11:49:35;;;;;;;36.10;12.95;;;-1.80;62.70;;;;;;2336791;54;21433;-71
2022/12/18 11:52:09;;;;;;;36.80;13.20;;;-1.70;62.70;;;;;;2341532;53;21500;-70
2022/12/18 11:54:36;;;;;;;35.97;12.20;;;-1.70;62.60;;;;;;2504086;52;21478;-70
2022/12/18 11:57:09;;;;;;;34.00;11.60;;;-1.60;62.60;;;;;;2510060;52;21001;-75
2022/12/18 12:01:37;;;;;;;37.88;13.23;;;-1.60;62.60;;;;;;2368388;53;20935;-73
2022/12/18 12:05:57;;;;;;;37.25;13.48;;;-1.60;62.50;;;;;;2499090;52;21317;-70
2022/12/18 12:10:33;;;;;;;31.60;12.18;;;-1.50;62.20;;;;;;2368974;53;20974;-70
2022/12/18 12:14:08;;;;;;;27.02;10.75;;;-1.40;62.30;;;;;;2615105;52;20938;-70
2022/12/18 12:16:48;;;;;;;36.35;12.20;;;-1.40;62.30;;;;;;2495716;52;21014;-70
2022/12/18 12:23:43;;;;;;;32.42;11.82;;;-1.30;62.50;;;;;;2438308;52;20910;-72
2022/12/18 12:26:45;;;;;;;26.25;10.43;;;-1.30;62.30;;;;;;2465266;52;21503;-70
2022/12/18 12:33:10;;;;;;;26.35;9.32;;;-1.20;62.50;;;;;;2390776;52;20942;-74
2022/12/18 12:39:10;;;;;;;25.20;9.40;;;-1.20;62.20;;;;;;2400324;52;21285;-72
2022/12/18 12:44:28;;;;;;;27.90;10.15;;;-1.20;62.10;;;;;;2375348;52;20927;-74
2022/12/18 12:46:56;;;;;;;24.87;10.48;;;-1.20;62.20;;;;;;2394609;52;20915;-74
2022/12/18 12:49:22;;;;;;;32.80;10.85;;;-1.20;62.20;;;;;;2621757;52;21311;-73
2022/12/18 12:52:10;;;;;;;32.60;12.15;;;-1.10;62.40;;;;;;2473980;52;20977;-69
2022/12/18 12:54:36;;;;;;;34.08;12.30;;;-1.10;62.30;;;;;;2471023;52;20978;-72
2022/12/18 12:57:30;;;;;;;31.40;12.05;;;-1.10;62.30;;;;;;2369433;53;21029;-70
2022/12/18 13:00:31;;;;;;;32.30;13.02;;;-1.10;62.40;;;;;;2341376;53;21558;-72
2022/12/18 13:03:03;;;;;;;38.63;13.35;;;-1.10;62.40;;;;;;2587567;52;20974;-72
2022/12/18 13:05:34;;;;;;;32.67;12.52;;;-1.00;62.60;;;;;;2341011;53;21486;-70
2022/12/18 13:08:07;;;;;;;32.70;11.95;;;-1.00;62.70;;;;;;2382377;53;21561;-70
2022/12/18 13:10:43;;;;;;;38.42;13.18;;;-1.00;62.80;;;;;;2341446;53;21362;-69
2022/12/18 13:13:13;;;;;;;34.88;13.62;;;-0.90;62.90;;;;;;2410314;52;21368;-74
2022/12/18 13:15:46;;;;;;;38.33;14.85;;;-0.90;62.80;;;;;;2495780;52;21426;-75
2022/12/18 13:18:17;;;;;;;35.67;13.23;;;-0.90;62.70;;;;;;2440175;52;20931;-71
2022/12/18 13:21:12;;;;;;;40.40;15.83;;;-0.90;62.50;;;;;;2343805;53;21042;-72
2022/12/18 13:23:38;;;;;;;37.13;14.43;;;-0.80;62.50;;;;;;2469550;52;21770;-71
2022/12/18 13:26:47;;;;;;;34.60;14.60;;;-0.80;62.60;;;;;;2548163;52;21487;-74
2022/12/18 13:29:35;;;;;;;34.03;12.65;;;-0.80;62.40;;;;;;2541469;52;21324;-70
2022/12/18 13:32:02;;;;;;;33.72;12.85;;;-0.80;62.50;;;;;;2356713;53;21009;-72
2022/12/18 13:34:30;;;;;;;36.22;13.15;;;-0.80;62.50;;;;;;2341283;53;20901;-72
2022/12/18 13:37:39;;;;;;;35.45;12.30;;;-0.80;62.60;;;;;;2351199;52;21676;-71
2022/12/18 13:40:44;;;;;;;31.48;12.32;;;-0.80;62.50;;;;;;2377565;53;20946;-71
2022/12/18 13:43:27;;;;;;;25.80;10.13;;;-0.80;62.50;;;;;;2361576;52;21018;-71